Time;durP1;ratioP1;P1;durP2;ratioP2;P2;SDS_P1;SDS_P2;PMS_P1;PMS_P2;Temp;Humidity;BMP_temperature;BMP_pressure;BME280_temperature;BME280_humidity;BME280_pressure;Samples;Min_cycle;Max_cycle;Signal;HPM_P1;HPM_P2
2023/01/06 00:00:07;;;;;;;0.63;0.28;;;20.00;75.00;;;;;;5031114;28;20103;-78
2023/01/06 00:02:33;;;;;;;1.35;0.30;;;19.90;75.10;;;;;;5031252;28;20140;-78
2023/01/06 00:04:59;;;;;;;0.40;0.20;;;19.90;75.20;;;;;;5031538;28;20154;-78
2023/01/06 00:07:24;;;;;;;0.17;0.17;;;19.90;75.30;;;;;;5032699;28;20061;-78
2023/01/06 00:09:50;;;;;;;0.35;0.30;;;19.80;75.20;;;;;;5032633;28;20057;-78
2023/01/06 00:12:16;;;;;;;0.85;0.15;;;19.80;75.30;;;;;;5032460;28;20112;-78
2023/01/06 00:14:43;;;;;;;0.45;0.20;;;19.80;75.40;;;;;;5014808;28;20381;-78
2023/01/06 00:17:09;;;;;;;0.60;0.20;;;19.80;75.40;;;;;;5032848;28;20025;-78
2023/01/06 00:19:34;;;;;;;0.45;0.25;;;19.70;75.50;;;;;;5031443;28;20053;-78
2023/01/06 00:22:00;;;;;;;1.75;0.38;;;19.70;75.50;;;;;;5032801;28;20095;-78
2023/01/06 00:24:26;;;;;;;0.77;0.20;;;19.60;75.50;;;;;;5031274;28;20053;-78
2023/01/06 00:26:51;;;;;;;0.60;0.30;;;19.60;75.60;;;;;;5032719;28;20053;-78
2023/01/06 00:29:17;;;;;;;1.33;0.30;;;19.60;75.70;;;;;;5014446;28;20022;-78
2023/01/06 00:31:42;;;;;;;0.73;0.30;;;19.60;75.80;;;;;;5032591;28;20030;-78
2023/01/06 00:34:09;;;;;;;0.77;0.40;;;19.60;75.80;;;;;;5032526;28;20109;-77
2023/01/06 00:36:35;;;;;;;0.73;0.28;;;19.50;75.90;;;;;;5031358;28;20112;-78
2023/01/06 00:39:00;;;;;;;0.90;0.30;;;19.50;76.00;;;;;;5036320;28;20025;-78
2023/01/06 00:44:10;;;;;;;1.45;0.20;;;19.50;76.00;;;;;;5036081;28;20384;-78
2023/01/06 00:46:36;;;;;;;0.90;0.30;;;19.40;76.10;;;;;;5035990;28;20033;-78
2023/01/06 00:49:02;;;;;;;0.38;0.30;;;19.40;76.10;;;;;;5035951;28;20101;-78
2023/01/06 00:51:28;;;;;;;2.05;0.43;;;19.40;76.30;;;;;;5034668;28;20033;-78
2023/01/06 00:53:53;;;;;;;0.30;0.20;;;19.40;76.30;;;;;;5035834;28;20148;-78
2023/01/06 00:56:19;;;;;;;0.63;0.17;;;19.40;76.30;;;;;;5034483;28;20029;-78
2023/01/06 00:58:45;;;;;;;0.80;0.17;;;19.30;76.30;;;;;;5035767;28;20384;-78
2023/01/06 01:01:11;;;;;;;3.35;0.40;;;19.30;76.40;;;;;;5034531;28;20032;-78
2023/01/06 01:03:37;;;;;;;0.55;0.30;;;19.30;76.50;;;;;;5046969;28;20045;-78
2023/01/06 01:06:04;;;;;;;0.93;0.47;;;19.20;76.50;;;;;;5054711;28;20033;-78
2023/01/06 01:08:30;;;;;;;1.15;0.43;;;19.20;76.50;;;;;;5054122;28;20506;-78
2023/01/06 01:11:01;;;;;;;0.85;0.30;;;19.20;76.50;;;;;;5054594;28;20029;-78
2023/01/06 01:13:26;;;;;;;0.52;0.20;;;19.20;76.60;;;;;;5053973;28;20345;-78
2023/01/06 01:15:52;;;;;;;0.40;0.28;;;19.20;76.80;;;;;;5055396;28;20135;-78
2023/01/06 01:18:18;;;;;;;0.20;0.10;;;19.10;76.80;;;;;;5055379;28;20487;-78
2023/01/06 01:20:46;;;;;;;3.42;0.32;;;19.10;77.00;;;;;;5054418;28;20483;-78
2023/01/06 01:23:12;;;;;;;0.77;0.30;;;19.10;77.00;;;;;;5053935;28;20490;-78
2023/01/06 01:25:39;;;;;;;0.63;0.20;;;19.10;77.20;;;;;;5053821;28;20017;-78
2023/01/06 01:28:05;;;;;;;0.38;0.20;;;19.10;77.20;;;;;;5053754;28;20029;-78
2023/01/06 01:30:31;;;;;;;1.83;0.30;;;19.10;77.30;;;;;;5055005;28;20023;-78
2023/01/06 01:32:57;;;;;;;3.92;0.30;;;19.00;77.30;;;;;;5055080;28;20029;-78
2023/01/06 01:35:22;;;;;;;2.00;0.35;;;19.00;77.50;;;;;;5054945;28;20053;-78
2023/01/06 01:37:48;;;;;;;0.40;0.20;;;19.00;77.50;;;;;;5054802;28;20060;-78
2023/01/06 01:40:14;;;;;;;1.52;0.35;;;19.00;77.50;;;;;;5054667;28;20021;-78
2023/01/06 01:42:39;;;;;;;0.50;0.13;;;19.00;77.60;;;;;;5055005;28;20403;-78
2023/01/06 01:45:13;;;;;;;0.25;0.25;;;19.00;77.60;;;;;;5055016;28;20021;-78
2023/01/06 01:47:44;;;;;;;0.30;0.17;;;19.00;77.50;;;;;;5053516;28;20112;-78
2023/01/06 01:50:15;;;;;;;0.65;0.30;;;19.00;77.60;;;;;;5052976;28;20476;-78
2023/01/06 01:52:41;;;;;;;0.00;0.00;;;18.90;77.60;;;;;;5054859;28;20057;-78
2023/01/06 01:55:07;;;;;;;1.45;0.22;;;18.90;77.60;;;;;;5053166;28;20055;-79
2023/01/06 01:57:37;;;;;;;2.15;0.15;;;18.90;77.80;;;;;;5053460;28;20025;-78
2023/01/06 02:00:05;;;;;;;0.65;0.10;;;18.90;77.80;;;;;;5053157;28;20005;-78
2023/01/06 02:02:30;;;;;;;1.05;0.45;;;18.90;77.90;;;;;;5050115;28;20562;-78
2023/01/06 02:04:56;;;;;;;2.95;0.20;;;18.80;77.80;;;;;;5016813;28;20144;-78
2023/01/06 02:07:23;;;;;;;7.55;0.20;;;18.90;77.90;;;;;;5033226;28;20499;-78
2023/01/06 02:09:55;;;;;;;1.17;0.28;;;18.90;77.90;;;;;;5016845;28;20041;-79
2023/01/06 02:12:21;;;;;;;0.67;0.30;;;18.80;77.90;;;;;;5033229;28;20033;-78
2023/01/06 02:14:46;;;;;;;0.75;0.25;;;18.80;77.90;;;;;;5033025;28;20510;-78
2023/01/06 02:17:51;;;;;;;1.92;0.25;;;18.80;78.20;;;;;;5033194;28;20496;-78
2023/01/06 02:20:39;;;;;;;1.00;0.40;;;18.80;77.90;;;;;;5026787;28;20052;-78
2023/01/06 02:23:23;;;;;;;1.60;0.20;;;18.70;77.90;;;;;;5034161;28;20029;-78
2023/01/06 02:26:32;;;;;;;1.33;0.30;;;18.70;78.00;;;;;;5033871;28;20509;-78
2023/01/06 02:29:13;;;;;;;0.68;0.30;;;18.70;78.00;;;;;;4992954;28;20041;-78
2023/01/06 02:32:04;;;;;;;0.45;0.20;;;18.70;78.10;;;;;;4992600;28;20030;-78
2023/01/06 02:34:47;;;;;;;1.67;0.20;;;18.70;78.10;;;;;;4990010;28;20053;-78
2023/01/06 02:37:21;;;;;;;1.63;0.40;;;18.70;78.20;;;;;;4992430;28;20038;-78
2023/01/06 02:39:52;;;;;;;5.97;0.40;;;18.60;78.20;;;;;;4992054;28;20401;-78
2023/01/06 02:42:48;;;;;;;0.77;0.38;;;18.60;78.20;;;;;;4992616;28;20026;-79
2023/01/06 02:45:29;;;;;;;0.80;0.30;;;18.60;78.10;;;;;;4989413;28;20125;-78
2023/01/06 02:47:58;;;;;;;0.32;0.10;;;18.60;78.20;;;;;;4992453;28;20054;-79
2023/01/06 02:50:44;;;;;;;0.22;0.20;;;18.60;78.20;;;;;;4992152;28;20031;-79
2023/01/06 02:53:41;;;;;;;0.85;0.20;;;18.60;78.20;;;;;;4992361;28;20046;-78
2023/01/06 02:56:07;;;;;;;1.27;0.32;;;18.50;78.20;;;;;;4989308;28;20022;-78
2023/01/06 02:58:51;;;;;;;0.55;0.28;;;18.50;78.20;;;;;;4994024;28;20044;-78
2023/01/06 03:01:40;;;;;;;0.52;0.30;;;18.50;78.20;;;;;;5015755;28;20037;-78
2023/01/06 03:04:08;;;;;;;0.45;0.20;;;18.50;78.20;;;;;;5017553;28;20036;-78
2023/01/06 03:06:34;;;;;;;1.88;0.22;;;18.50;78.30;;;;;;5032019;28;20035;-78
2023/01/06 03:09:00;;;;;;;1.00;0.30;;;18.50;78.30;;;;;;5033237;28;20026;-78
2023/01/06 03:11:26;;;;;;;1.02;0.30;;;18.50;78.30;;;;;;5032200;28;20052;-78
2023/01/06 03:14:03;;;;;;;0.85;0.30;;;18.50;78.40;;;;;;5032186;28;20056;-78
2023/01/06 03:16:29;;;;;;;1.30;0.20;;;18.50;78.40;;;;;;5032019;28;20022;-78
2023/01/06 03:18:54;;;;;;;0.40;0.20;;;18.40;78.40;;;;;;5032092;28;20414;-78
2023/01/06 03:21:22;;;;;;;1.05;0.28;;;18.40;78.50;;;;;;5032007;28;20444;-78
2023/01/06 03:23:48;;;;;;;0.98;0.20;;;18.40;78.40;;;;;;5031906;28;20029;-78
2023/01/06 03:26:13;;;;;;;1.08;0.20;;;18.40;78.50;;;;;;5033053;28;20026;-78
2023/01/06 03:28:39;;;;;;;1.58;0.30;;;18.40;78.50;;;;;;5032109;28;20026;-78
2023/01/06 03:31:23;;;;;;;2.83;0.30;;;18.40;78.50;;;;;;5031836;28;20040;-79
2023/01/06 03:33:58;;;;;;;0.55;0.10;;;18.30;78.50;;;;;;5033179;28;20025;-79
2023/01/06 03:36:51;;;;;;;1.70;0.20;;;18.30;78.40;;;;;;5031683;28;20037;-80
2023/01/06 03:39:44;;;;;;;0.57;0.22;;;18.30;78.40;;;;;;5031652;28;20024;-79
2023/01/06 03:45:28;;;;;;;1.05;0.10;;;18.30;78.50;;;;;;5032648;28;20534;-79
2023/01/06 03:47:57;;;;;;;1.40;0.20;;;18.30;78.60;;;;;;5031654;28;20092;-79
2023/01/06 03:50:29;;;;;;;0.85;0.10;;;18.30;78.60;;;;;;5032824;28;20034;-79
2023/01/06 03:53:21;;;;;;;0.95;0.20;;;18.20;78.50;;;;;;5031587;28;20472;-80
2023/01/06 03:55:50;;;;;;;0.60;0.20;;;18.20;78.50;;;;;;5031823;28;20037;-80
2023/01/06 03:58:16;;;;;;;2.72;0.82;;;18.20;78.60;;;;;;5031549;28;20067;-80
2023/01/06 04:00:42;;;;;;;1.35;1.02;;;18.20;78.70;;;;;;5031842;28;20037;-80
2023/01/06 04:03:08;;;;;;;0.10;0.10;;;18.20;78.70;;;;;;5031359;28;20393;-80
2023/01/06 04:05:34;;;;;;;0.20;0.20;;;18.20;78.70;;;;;;5031080;28;20033;-80
2023/01/06 04:08:00;;;;;;;0.68;0.20;;;18.20;78.70;;;;;;5031090;28;20030;-80
2023/01/06 04:10:25;;;;;;;2.55;0.20;;;18.20;78.70;;;;;;5031768;28;20033;-80
2023/01/06 04:12:51;;;;;;;0.32;0.20;;;18.20;78.70;;;;;;5033939;28;20021;-80
2023/01/06 04:15:21;;;;;;;0.45;0.22;;;18.10;78.70;;;;;;5036389;28;20431;-79
2023/01/06 04:17:47;;;;;;;1.42;0.50;;;18.10;78.80;;;;;;5036731;28;20023;-78
2023/01/06 04:20:15;;;;;;;3.53;0.40;;;18.10;78.80;;;;;;5034117;28;20040;-79
2023/01/06 04:22:41;;;;;;;1.17;0.68;;;18.10;78.90;;;;;;5034991;28;20021;-78
2023/01/06 04:25:07;;;;;;;0.43;0.20;;;18.10;78.80;;;;;;5036432;28;20100;-78
2023/01/06 04:27:32;;;;;;;0.68;0.25;;;18.10;78.80;;;;;;5033954;28;20029;-78
2023/01/06 04:29:58;;;;;;;1.17;0.20;;;18.10;78.80;;;;;;5036235;28;20034;-78
2023/01/06 04:32:24;;;;;;;0.93;0.30;;;18.10;78.70;;;;;;5036146;28;20025;-78
2023/01/06 04:34:50;;;;;;;2.40;0.32;;;18.10;78.80;;;;;;5034507;28;20029;-78
2023/01/06 04:37:15;;;;;;;1.90;0.20;;;18.10;79.80;;;;;;5034803;28;20465;-78
2023/01/06 04:39:41;;;;;;;0.90;0.38;;;18.10;78.80;;;;;;5034697;28;20032;-78
2023/01/06 04:42:07;;;;;;;0.98;0.30;;;18.00;78.70;;;;;;5034599;28;20025;-78
2023/01/06 04:44:32;;;;;;;0.70;0.30;;;18.00;78.80;;;;;;5034713;28;20064;-78
2023/01/06 04:46:58;;;;;;;1.38;0.35;;;18.00;78.80;;;;;;5035812;28;20105;-78
2023/01/06 04:49:23;;;;;;;2.22;0.28;;;18.00;78.80;;;;;;5034197;28;20108;-78
2023/01/06 04:51:49;;;;;;;2.90;0.30;;;18.00;78.80;;;;;;5034374;28;20100;-77
2023/01/06 04:54:15;;;;;;;0.32;0.17;;;18.00;78.90;;;;;;5034351;28;20025;-78
2023/01/06 04:56:40;;;;;;;0.30;0.22;;;18.00;78.90;;;;;;5035477;28;20079;-78
2023/01/06 04:59:06;;;;;;;1.27;0.35;;;18.00;78.90;;;;;;5035355;28;20022;-78
2023/01/06 05:01:32;;;;;;;0.57;0.20;;;18.00;78.90;;;;;;5035062;28;20171;-78
2023/01/06 05:03:57;;;;;;;0.60;0.20;;;18.00;78.90;;;;;;5034018;28;20041;-77
2023/01/06 05:06:23;;;;;;;1.48;0.40;;;18.00;79.00;;;;;;5035172;28;20025;-78
2023/01/06 05:08:49;;;;;;;0.45;0.30;;;18.00;79.00;;;;;;5034142;28;20033;-78
2023/01/06 05:11:19;;;;;;;1.05;0.15;;;17.90;78.90;;;;;;5034412;28;20025;-78
2023/01/06 05:13:45;;;;;;;0.13;0.10;;;17.90;78.90;;;;;;5034012;28;20108;-77
2023/01/06 05:16:25;;;;;;;1.00;0.30;;;17.90;78.90;;;;;;5034140;28;20591;-77
2023/01/06 05:18:50;;;;;;;1.42;0.22;;;17.90;79.00;;;;;;5033874;28;20017;-78
2023/01/06 05:21:16;;;;;;;0.10;0.10;;;17.90;79.00;;;;;;5033919;28;20014;-77
2023/01/06 05:23:42;;;;;;;1.67;0.30;;;17.90;79.00;;;;;;5032923;28;20167;-77
2023/01/06 05:26:08;;;;;;;1.30;0.30;;;17.90;79.00;;;;;;5034114;28;20040;-78
2023/01/06 05:28:34;;;;;;;5.32;0.30;;;17.90;79.00;;;;;;5033958;28;20449;-79
2023/01/06 05:31:04;;;;;;;0.93;0.30;;;17.90;79.10;;;;;;5035211;28;20058;-79
2023/01/06 05:33:32;;;;;;;1.75;0.20;;;17.90;79.10;;;;;;5033694;28;20025;-79
2023/01/06 05:35:59;;;;;;;2.00;0.30;;;17.90;79.10;;;;;;5017295;28;20488;-78
2023/01/06 05:38:25;;;;;;;0.88;0.22;;;17.80;79.10;;;;;;5033704;28;20021;-78
2023/01/06 05:40:51;;;;;;;0.13;0.13;;;17.90;79.10;;;;;;5034836;28;20523;-79
2023/01/06 05:43:17;;;;;;;1.08;0.30;;;17.80;79.00;;;;;;5000770;28;20385;-78
2023/01/06 05:45:42;;;;;;;3.72;0.32;;;17.90;79.10;;;;;;5035028;28;20108;-79
2023/01/06 05:48:08;;;;;;;3.50;0.40;;;17.80;79.10;;;;;;5034634;28;20041;-79
2023/01/06 05:50:34;;;;;;;2.55;0.40;;;17.80;79.10;;;;;;5034671;28;20030;-79
2023/01/06 05:52:59;;;;;;;0.75;0.22;;;17.80;79.10;;;;;;5034729;28;20068;-79
2023/01/06 05:55:25;;;;;;;1.20;0.10;;;17.80;79.10;;;;;;5033317;28;20088;-79
2023/01/06 05:57:50;;;;;;;0.28;0.20;;;17.80;80.10;;;;;;5034440;28;20075;-79
2023/01/06 06:00:16;;;;;;;0.52;0.40;;;17.80;79.10;;;;;;5034473;28;20029;-78
2023/01/06 06:02:42;;;;;;;2.30;0.28;;;17.80;79.10;;;;;;5034005;28;20045;-78
2023/01/06 06:05:08;;;;;;;0.55;0.30;;;17.80;79.00;;;;;;5034635;28;20468;-79
2023/01/06 06:07:33;;;;;;;0.43;0.20;;;17.80;79.20;;;;;;5033335;28;20033;-78
2023/01/06 06:09:59;;;;;;;0.35;0.20;;;17.80;79.20;;;;;;5034688;28;20028;-78
2023/01/06 06:12:25;;;;;;;0.65;0.30;;;17.70;79.10;;;;;;5034048;28;20032;-78
2023/01/06 06:14:50;;;;;;;1.48;0.50;;;17.70;79.10;;;;;;5033972;28;20028;-78
2023/01/06 06:17:16;;;;;;;0.20;0.20;;;17.80;79.30;;;;;;5032970;28;20033;-78
2023/01/06 06:19:41;;;;;;;0.75;0.10;;;17.70;80.20;;;;;;5032889;28;20025;-78
2023/01/06 06:22:07;;;;;;;0.50;0.10;;;17.70;79.20;;;;;;5034028;28;20032;-78
2023/01/06 06:24:33;;;;;;;0.28;0.20;;;17.70;79.30;;;;;;5033382;28;20079;-78
2023/01/06 06:26:58;;;;;;;0.25;0.15;;;17.70;79.20;;;;;;5033890;28;20036;-78
2023/01/06 06:29:24;;;;;;;2.10;0.17;;;17.70;79.20;;;;;;5034092;28;20371;-78
2023/01/06 06:31:50;;;;;;;0.98;0.25;;;17.70;79.40;;;;;;5033781;28;20033;-78
2023/01/06 06:34:15;;;;;;;1.83;0.20;;;17.70;79.30;;;;;;5034077;28;20013;-78
2023/01/06 06:36:41;;;;;;;0.30;0.20;;;17.70;79.50;;;;;;5032412;28;20026;-78
2023/01/06 06:39:07;;;;;;;0.90;0.25;;;17.70;79.40;;;;;;5033902;28;20109;-77
2023/01/06 06:41:32;;;;;;;0.55;0.10;;;17.60;79.40;;;;;;5033721;28;20041;-78
2023/01/06 06:43:58;;;;;;;0.52;0.17;;;17.60;79.40;;;;;;5033843;28;20024;-78
2023/01/06 06:46:24;;;;;;;3.65;0.30;;;17.60;79.60;;;;;;5033562;28;20502;-78
2023/01/06 06:48:49;;;;;;;0.60;0.30;;;17.70;79.50;;;;;;5033689;28;20025;-78
2023/01/06 06:51:16;;;;;;;0.43;0.20;;;17.70;79.70;;;;;;5032631;28;20384;-78
2023/01/06 06:53:42;;;;;;;0.25;0.20;;;17.60;79.60;;;;;;5032312;28;20022;-78
2023/01/06 06:56:08;;;;;;;0.80;0.20;;;17.60;79.60;;;;;;5033374;28;20094;-78
2023/01/06 06:58:34;;;;;;;0.40;0.28;;;17.60;79.60;;;;;;5032384;28;20028;-78
2023/01/06 07:01:08;;;;;;;0.75;0.20;;;17.60;79.60;;;;;;5032039;28;20022;-78
2023/01/06 07:03:34;;;;;;;3.13;0.43;;;17.60;79.60;;;;;;5031803;28;20034;-78
2023/01/06 07:06:01;;;;;;;1.65;0.50;;;17.60;79.60;;;;;;5033037;28;20051;-78
2023/01/06 07:08:27;;;;;;;1.17;0.17;;;17.60;79.60;;;;;;5031145;28;20022;-78
2023/01/06 07:10:53;;;;;;;0.82;0.20;;;17.60;79.80;;;;;;5032529;28;20029;-78
2023/01/06 07:13:19;;;;;;;0.82;0.40;;;17.60;79.80;;;;;;5031490;28;20403;-78
2023/01/06 07:15:44;;;;;;;0.50;0.30;;;17.50;79.80;;;;;;5031003;28;20411;-78
2023/01/06 07:18:10;;;;;;;0.55;0.32;;;17.50;79.70;;;;;;5031275;28;20021;-78
2023/01/06 07:20:36;;;;;;;0.30;0.10;;;17.50;79.70;;;;;;5032602;28;20025;-78
2023/01/06 07:23:02;;;;;;;0.43;0.43;;;17.50;79.70;;;;;;5031275;28;20068;-78
2023/01/06 07:25:28;;;;;;;0.55;0.20;;;17.50;79.80;;;;;;5014977;28;20034;-78
2023/01/06 07:27:54;;;;;;;0.32;0.17;;;17.50;79.80;;;;;;5032460;28;20034;-80
2023/01/06 07:30:20;;;;;;;1.20;0.30;;;17.50;80.00;;;;;;5031198;28;20037;-80
2023/01/06 07:32:45;;;;;;;1.08;0.30;;;17.50;79.10;;;;;;5014671;28;20124;-80
2023/01/06 07:35:11;;;;;;;0.73;0.20;;;17.50;78.80;;;;;;5032402;28;20060;-80
2023/01/06 07:37:37;;;;;;;0.82;0.30;;;17.50;78.50;;;;;;5032193;28;20021;-80
2023/01/06 07:40:03;;;;;;;1.65;0.30;;;17.50;78.20;;;;;;5032293;28;20036;-80
2023/01/06 07:42:28;;;;;;;0.52;0.22;;;17.40;78.20;;;;;;5031042;28;20029;-80
2023/01/06 07:44:54;;;;;;;0.68;0.20;;;17.40;78.00;;;;;;5031927;28;20025;-80
2023/01/06 07:47:19;;;;;;;1.55;0.20;;;17.40;78.00;;;;;;5033793;28;20018;-80
2023/01/06 07:49:45;;;;;;;0.57;0.30;;;17.40;77.80;;;;;;5036502;28;20428;-82
2023/01/06 07:52:11;;;;;;;8.80;1.20;;;17.40;77.70;;;;;;5036091;28;20553;-82
2023/01/06 07:54:36;;;;;;;14.02;2.20;;;17.40;77.80;;;;;;5036096;28;20053;-82
2023/01/06 07:57:02;;;;;;;11.25;1.75;;;17.30;77.80;;;;;;5035011;28;20033;-82
2023/01/06 07:59:28;;;;;;;5.38;1.30;;;17.30;77.80;;;;;;5034747;28;20025;-82
2023/01/06 08:01:54;;;;;;;11.30;1.63;;;17.30;77.90;;;;;;5034750;28;20128;-82
2023/01/06 08:04:19;;;;;;;8.95;1.77;;;17.30;77.80;;;;;;5015728;28;20021;-82
2023/01/06 08:06:45;;;;;;;6.63;1.50;;;17.30;77.90;;;;;;5034650;28;20026;-82
2023/01/06 08:09:10;;;;;;;9.13;1.30;;;17.30;77.90;;;;;;5034904;28;20032;-82
2023/01/06 08:11:36;;;;;;;7.18;1.45;;;17.30;77.80;;;;;;5035439;28;20602;-82
2023/01/06 08:14:02;;;;;;;9.25;1.50;;;17.30;77.80;;;;;;5034538;28;20430;-82
2023/01/06 08:16:27;;;;;;;5.47;1.67;;;17.30;77.80;;;;;;5035768;28;20380;-82
2023/01/06 08:18:53;;;;;;;6.07;1.75;;;17.20;77.70;;;;;;5034562;28;20500;-82
2023/01/06 08:21:18;;;;;;;5.93;1.38;;;17.20;77.70;;;;;;5035708;28;20032;-82
2023/01/06 08:23:44;;;;;;;10.05;1.70;;;17.30;77.70;;;;;;5035737;28;20026;-82
2023/01/06 08:26:14;;;;;;;10.60;2.05;;;17.30;77.70;;;;;;5035688;28;20476;-82
2023/01/06 08:28:43;;;;;;;6.20;1.48;;;17.20;77.60;;;;;;5035572;28;20140;-82
2023/01/06 08:31:17;;;;;;;5.63;1.77;;;17.20;77.60;;;;;;5034401;28;20021;-82
2023/01/06 08:33:42;;;;;;;7.45;1.65;;;17.20;77.50;;;;;;5034386;28;20032;-82
2023/01/06 08:36:11;;;;;;;5.93;1.77;;;17.20;77.50;;;;;;5034254;28;20025;-82
2023/01/06 08:38:36;;;;;;;8.65;1.83;;;17.20;77.50;;;;;;5029434;28;20431;-82
2023/01/06 08:41:02;;;;;;;8.57;1.88;;;17.20;77.40;;;;;;5014180;28;20030;-82
2023/01/06 08:43:28;;;;;;;5.22;1.88;;;17.10;77.40;;;;;;5015741;28;20022;-82
2023/01/06 08:45:58;;;;;;;6.50;1.50;;;17.10;77.30;;;;;;5015488;28;20105;-82
2023/01/06 08:48:24;;;;;;;5.55;1.45;;;17.20;77.50;;;;;;5014250;28;20121;-82
2023/01/06 08:50:49;;;;;;;5.75;1.70;;;17.10;77.40;;;;;;5015261;28;20108;-82
2023/01/06 08:53:15;;;;;;;6.80;1.63;;;17.10;77.30;;;;;;5015445;28;20026;-82
2023/01/06 08:55:41;;;;;;;6.65;1.45;;;17.10;77.30;;;;;;5013941;28;20049;-82
2023/01/06 08:58:07;;;;;;;5.45;1.13;;;17.10;77.30;;;;;;5014041;28;20018;-82
2023/01/06 09:00:32;;;;;;;7.32;1.40;;;17.10;77.20;;;;;;5014238;28;20021;-82
2023/01/06 09:02:58;;;;;;;7.55;1.65;;;17.10;77.20;;;;;;5019764;28;20049;-82
2023/01/06 09:05:24;;;;;;;5.57;1.35;;;17.10;77.20;;;;;;5034882;28;20052;-82
2023/01/06 09:07:50;;;;;;;9.25;1.50;;;17.00;77.20;;;;;;5034907;28;20519;-82
2023/01/06 09:10:17;;;;;;;5.50;1.60;;;17.00;77.20;;;;;;5034722;28;20025;-82
2023/01/06 09:12:43;;;;;;;7.50;1.92;;;17.00;77.20;;;;;;5028910;28;20018;-82
2023/01/06 09:15:09;;;;;;;5.90;1.50;;;17.00;77.20;;;;;;5013660;28;20022;-82
2023/01/06 09:17:34;;;;;;;3.33;1.40;;;17.00;77.20;;;;;;5013580;28;20116;-82
2023/01/06 09:20:00;;;;;;;6.43;1.77;;;17.00;77.20;;;;;;5014902;28;20025;-82
2023/01/06 09:22:25;;;;;;;6.72;1.58;;;17.00;77.20;;;;;;5013788;28;20029;-82
2023/01/06 09:24:51;;;;;;;7.70;1.80;;;17.00;77.30;;;;;;5013276;28;20018;-82
2023/01/06 09:27:17;;;;;;;5.65;1.42;;;16.90;77.20;;;;;;5014708;28;20497;-82
2023/01/06 09:29:42;;;;;;;7.38;1.52;;;16.90;77.20;;;;;;5014782;28;20021;-82
2023/01/06 09:32:08;;;;;;;7.47;1.50;;;16.90;77.20;;;;;;5013408;28;20612;-82
2023/01/06 09:34:34;;;;;;;4.28;1.33;;;16.90;77.30;;;;;;5013509;28;20485;-82
2023/01/06 09:36:59;;;;;;;7.70;1.38;;;16.90;77.20;;;;;;4996799;28;20041;-82
2023/01/06 09:39:26;;;;;;;4.30;1.05;;;16.90;77.20;;;;;;5013267;28;20037;-82
2023/01/06 09:42:06;;;;;;;6.40;1.30;;;16.90;77.20;;;;;;5014477;28;20029;-82
2023/01/06 09:44:37;;;;;;;7.20;1.40;;;16.90;77.20;;;;;;5013495;28;20018;-82
2023/01/06 09:47:03;;;;;;;4.97;1.73;;;16.90;77.20;;;;;;5013113;28;20025;-82
2023/01/06 09:49:48;;;;;;;4.60;1.20;;;16.90;77.20;;;;;;5013170;28;20028;-82
2023/01/06 09:52:16;;;;;;;3.13;1.27;;;16.90;77.20;;;;;;4996576;28;20030;-82
2023/01/06 09:55:07;;;;;;;3.75;1.15;;;16.90;77.20;;;;;;5013031;28;20029;-82
2023/01/06 09:57:39;;;;;;;5.35;1.30;;;16.90;77.30;;;;;;5013437;28;20484;-82
2023/01/06 10:00:13;;;;;;;3.67;1.27;;;16.80;77.20;;;;;;5012942;28;20476;-82
2023/01/06 10:02:39;;;;;;;4.40;1.60;;;16.80;77.30;;;;;;5016136;28;20053;-82
2023/01/06 10:05:49;;;;;;;4.20;1.25;;;16.80;77.20;;;;;;5016184;28;20029;-82
2023/01/06 10:08:38;;;;;;;2.80;1.08;;;16.80;77.20;;;;;;5001062;28;20037;-82
2023/01/06 10:11:33;;;;;;;4.63;1.20;;;16.80;77.30;;;;;;5031974;28;20030;-82
2023/01/06 10:14:37;;;;;;;4.75;1.30;;;16.80;77.20;;;;;;5027622;28;20025;-82
2023/01/06 10:17:08;;;;;;;4.45;1.30;;;16.80;77.20;;;;;;5032271;28;20052;-82
2023/01/06 10:20:04;;;;;;;3.13;0.93;;;16.80;77.30;;;;;;5033520;28;20053;-82
2023/01/06 10:23:11;;;;;;;3.85;1.23;;;16.80;77.20;;;;;;5032314;28;20028;-82
2023/01/06 10:25:40;;;;;;;4.53;1.08;;;16.70;77.20;;;;;;4999057;28;20042;-82
2023/01/06 10:28:28;;;;;;;2.90;1.15;;;16.70;77.20;;;;;;4995128;28;20032;-82
2023/01/06 10:30:58;;;;;;;2.35;1.00;;;16.70;77.20;;;;;;4995429;28;20053;-82
2023/01/06 10:33:26;;;;;;;2.08;1.02;;;16.70;77.20;;;;;;4979478;28;20492;-82
2023/01/06 10:35:53;;;;;;;2.60;0.93;;;16.70;77.30;;;;;;4979062;28;20053;-82
2023/01/06 10:38:27;;;;;;;3.30;1.10;;;16.70;77.30;;;;;;4978636;28;20022;-82
2023/01/06 10:40:53;;;;;;;2.95;1.00;;;16.70;77.30;;;;;;4979782;28;20026;-82
2023/01/06 10:43:21;;;;;;;4.82;1.30;;;16.70;77.30;;;;;;4978900;28;20080;-82
2023/01/06 10:45:47;;;;;;;1.42;0.70;;;16.70;77.30;;;;;;4995197;28;20026;-82
2023/01/06 10:48:19;;;;;;;2.22;1.23;;;16.70;77.40;;;;;;4978528;28;20033;-82
2023/01/06 10:50:45;;;;;;;;;;;16.70;77.30;;;;;;4979214;28;20079;-82
2023/01/06 10:53:11;;;;;;;2.55;0.98;;;16.70;77.40;;;;;;5010838;28;19909;-82
2023/01/06 10:55:44;;;;;;;3.03;1.33;;;16.60;77.30;;;;;;4994625;28;20177;-82
2023/01/06 10:58:34;;;;;;;4.03;0.98;;;16.60;77.30;;;;;;4995450;28;20034;-82
2023/01/06 11:01:24;;;;;;;2.75;1.00;;;16.60;77.30;;;;;;4996375;28;20037;-82
2023/01/06 11:04:06;;;;;;;3.70;1.30;;;16.60;77.30;;;;;;5026257;28;20045;-82
2023/01/06 11:06:32;;;;;;;3.70;1.00;;;16.60;77.30;;;;;;5031491;28;20036;-82
2023/01/06 11:08:57;;;;;;;1.88;0.80;;;16.60;77.30;;;;;;5031569;28;20029;-82
2023/01/06 11:11:23;;;;;;;2.60;1.00;;;16.60;77.30;;;;;;5031651;28;20434;-82
2023/01/06 11:13:56;;;;;;;2.20;0.95;;;16.60;77.30;;;;;;5017704;28;20381;-82
2023/01/06 11:16:27;;;;;;;1.73;0.85;;;16.60;77.30;;;;;;5011576;28;20030;-82
2023/01/06 11:18:57;;;;;;;2.83;1.02;;;16.60;77.30;;;;;;5011765;28;20010;-82
2023/01/06 11:21:36;;;;;;;3.75;1.02;;;16.60;77.30;;;;;;5010870;28;20025;-82
2023/01/06 11:24:14;;;;;;;1.88;1.10;;;16.60;77.30;;;;;;5011581;28;20021;-82
2023/01/06 11:26:44;;;;;;;3.72;1.15;;;16.60;77.30;;;;;;5011781;28;20021;-82
2023/01/06 11:29:17;;;;;;;1.48;0.82;;;16.50;77.90;;;;;;5011514;28;20021;-82
2023/01/06 11:31:46;;;;;;;2.88;0.88;;;16.60;77.30;;;;;;5011615;28;20036;-82
2023/01/06 11:34:21;;;;;;;4.72;1.10;;;16.60;77.30;;;;;;5011403;28;20030;-82
2023/01/06 11:36:46;;;;;;;2.15;0.90;;;16.50;77.30;;;;;;5010999;28;20109;-82
2023/01/06 11:39:14;;;;;;;2.47;0.90;;;16.50;77.30;;;;;;5011425;28;20049;-82
2023/01/06 11:41:43;;;;;;;2.40;0.77;;;16.50;77.30;;;;;;5011498;28;20025;-82
2023/01/06 11:44:12;;;;;;;1.88;0.80;;;16.50;77.30;;;;;;4994951;28;20400;-82
2023/01/06 11:46:39;;;;;;;2.42;0.98;;;16.50;77.30;;;;;;5011306;28;20108;-82
2023/01/06 11:49:09;;;;;;;2.80;1.10;;;16.50;77.30;;;;;;5011080;28;20033;-82
2023/01/06 11:51:40;;;;;;;1.95;0.70;;;16.50;77.30;;;;;;5011257;28;20076;-82
2023/01/06 11:54:36;;;;;;;2.37;0.73;;;16.50;77.30;;;;;;5012333;28;20088;-82
2023/01/06 11:57:19;;;;;;;1.35;0.77;;;16.50;77.30;;;;;;5006628;28;20073;-82
2023/01/06 12:00:23;;;;;;;1.23;0.70;;;16.50;77.30;;;;;;5011198;28;20105;-82
2023/01/06 12:02:56;;;;;;;3.85;1.05;;;16.50;77.30;;;;;;5015786;28;20526;-82
2023/01/06 12:05:47;;;;;;;1.92;0.65;;;16.50;77.30;;;;;;5030517;28;20022;-82
2023/01/06 12:08:21;;;;;;;2.80;0.80;;;16.50;77.40;;;;;;5032051;28;20044;-82
2023/01/06 12:10:52;;;;;;;2.50;0.98;;;16.40;77.30;;;;;;5032225;28;20032;-82
2023/01/06 12:13:18;;;;;;;0.63;0.50;;;16.40;77.30;;;;;;5021270;28;20061;-82
2023/01/06 12:15:45;;;;;;;0.93;0.63;;;16.40;77.30;;;;;;5011118;28;20049;-82
2023/01/06 12:18:22;;;;;;;1.52;0.60;;;16.40;77.30;;;;;;5010665;28;20018;-82
2023/01/06 12:20:49;;;;;;;1.38;0.70;;;16.40;77.30;;;;;;5011165;28;20029;-82
2023/01/06 12:23:56;;;;;;;2.03;0.70;;;16.40;77.20;;;;;;5010934;28;20018;-82
2023/01/06 12:26:22;;;;;;;2.03;0.88;;;16.40;77.30;;;;;;5011250;28;20052;-82
2023/01/06 12:28:48;;;;;;;1.80;0.60;;;16.40;77.30;;;;;;5010915;28;20014;-82
2023/01/06 12:31:33;;;;;;;1.27;0.90;;;16.40;77.30;;;;;;5010909;28;20103;-82
2023/01/06 12:34:09;;;;;;;2.22;0.85;;;16.40;77.30;;;;;;5014304;28;20021;-82
2023/01/06 12:36:43;;;;;;;1.33;0.70;;;16.40;77.40;;;;;;5014615;28;20062;-82
2023/01/06 12:39:52;;;;;;;1.58;0.63;;;16.40;78.30;;;;;;5015611;28;20101;-82
2023/01/06 12:42:22;;;;;;;0.90;0.55;;;16.40;77.30;;;;;;5011882;28;20038;-82
2023/01/06 12:44:55;;;;;;;2.08;0.60;;;16.30;77.30;;;;;;5014563;28;20053;-82
2023/01/06 12:47:30;;;;;;;1.27;0.65;;;16.30;77.30;;;;;;5014010;28;20018;-82
2023/01/06 12:50:09;;;;;;;2.80;1.02;;;16.30;77.30;;;;;;5014388;28;20076;-82
2023/01/06 12:52:41;;;;;;;1.40;0.73;;;16.30;77.30;;;;;;5014304;28;20025;-82
2023/01/06 12:55:11;;;;;;;1.10;0.50;;;16.30;77.30;;;;;;5014030;28;20026;-82
2023/01/06 12:57:54;;;;;;;1.20;0.47;;;16.30;77.30;;;;;;5014190;28;20021;-82
2023/01/06 13:00:38;;;;;;;1.60;0.85;;;16.30;77.40;;;;;;5015288;28;20524;-82
2023/01/06 13:03:18;;;;;;;0.90;0.60;;;16.30;77.30;;;;;;5021527;28;20045;-82
2023/01/06 13:05:57;;;;;;;1.00;0.60;;;16.30;77.30;;;;;;5034843;28;20387;-82
2023/01/06 13:08:40;;;;;;;1.55;0.60;;;16.30;77.30;;;;;;5033833;28;20034;-82